createdAt,value
2019-02-20T00:00:43.000Z,3.44
2019-02-20T00:03:14.853Z,3.42
2019-02-20T00:05:49.712Z,3.43
2019-02-20T00:08:21.907Z,3.37
2019-02-20T00:10:54.759Z,3.36
2019-02-20T00:13:29.538Z,3.33
2019-02-20T00:16:01.370Z,3.33
2019-02-20T00:18:35.599Z,3.29
2019-02-20T00:21:07.453Z,3.25
2019-02-20T00:23:39.283Z,3.22
2019-02-20T00:26:11.108Z,3.20
2019-02-20T00:28:42.963Z,3.16
2019-02-20T00:31:15.960Z,3.13
2019-02-20T00:33:47.825Z,3.12
2019-02-20T00:36:24.381Z,3.10
2019-02-20T00:38:57.910Z,3.08
2019-02-20T00:41:29.730Z,3.09
2019-02-20T00:44:15.368Z,3.05
2019-02-20T00:47:27.115Z,3.06
2019-02-20T00:49:59.057Z,3.04
2019-02-20T00:52:50.147Z,3.02
2019-02-20T00:55:25.139Z,2.97
2019-02-20T00:57:56.978Z,2.91
2019-02-20T01:00:30.580Z,2.88
2019-02-20T01:03:03.979Z,2.88
2019-02-20T01:05:35.820Z,2.91
2019-02-20T01:08:09.051Z,2.89
2019-02-20T01:10:43.458Z,2.88
2019-02-20T01:13:18.120Z,2.84
2019-02-20T01:15:50.000Z,2.85
2019-02-20T01:18:21.845Z,2.86
2019-02-20T01:20:56.116Z,2.87
2019-02-20T01:23:29.689Z,2.84
2019-02-20T01:26:01.538Z,2.87
2019-02-20T01:28:36.460Z,2.83
2019-02-20T01:31:09.370Z,2.80
2019-02-20T01:33:42.421Z,2.79
2019-02-20T01:36:14.239Z,2.82
2019-02-20T01:38:46.110Z,2.77
2019-02-20T01:41:19.107Z,2.80
2019-02-20T01:43:53.973Z,2.84
2019-02-20T01:46:29.002Z,2.78
2019-02-20T01:49:00.876Z,2.76
2019-02-20T01:51:32.726Z,2.74
2019-02-20T01:54:06.583Z,2.68
2019-02-20T01:56:38.451Z,2.64
2019-02-20T01:59:12.758Z,2.65
2019-02-20T02:01:44.586Z,2.66
2019-02-20T02:04:16.522Z,2.67
2019-02-20T02:06:48.395Z,2.62
2019-02-20T02:09:20.247Z,2.60
2019-02-20T02:11:52.079Z,2.57
2019-02-20T02:14:23.951Z,2.57
2019-02-20T02:17:00.332Z,2.49
2019-02-20T02:19:38.789Z,2.46
2019-02-20T02:22:13.487Z,2.46
2019-02-20T02:24:45.551Z,2.43
2019-02-20T02:27:17.427Z,2.40
2019-02-20T02:29:50.411Z,2.41
2019-02-20T02:32:22.317Z,2.35
2019-02-20T02:34:54.175Z,2.33
2019-02-20T02:37:26.076Z,2.32
2019-02-20T02:39:57.924Z,2.28
2019-02-20T02:42:29.807Z,2.28
2019-02-20T02:45:01.677Z,2.26
2019-02-20T02:47:33.556Z,2.26
2019-02-20T02:50:05.681Z,2.25
2019-02-20T02:52:37.550Z,2.19
2019-02-20T02:55:17.188Z,2.20
2019-02-20T02:57:51.038Z,2.19
2019-02-20T03:00:21.667Z,2.16
2019-02-20T03:02:53.518Z,2.16
2019-02-20T03:05:27.003Z,2.16
2019-02-20T03:08:00.133Z,2.20
2019-02-20T03:10:33.519Z,2.21
2019-02-20T03:13:10.232Z,2.16
2019-02-20T03:15:42.099Z,2.17
2019-02-20T03:18:15.038Z,2.23
2019-02-20T03:20:46.893Z,2.21
2019-02-20T03:23:21.497Z,2.19
2019-02-20T03:25:53.620Z,2.17
2019-02-20T03:28:25.455Z,2.15
2019-02-20T03:30:57.316Z,2.17
2019-02-20T03:33:29.145Z,2.15
2019-02-20T03:36:01.047Z,2.14
2019-02-20T03:38:32.905Z,2.16
2019-02-20T03:41:04.796Z,2.12
2019-02-20T03:43:36.611Z,2.10
2019-02-20T03:46:09.746Z,2.09
2019-02-20T03:48:41.618Z,2.08
2019-02-20T03:51:13.423Z,2.09
2019-02-20T03:53:51.411Z,2.04
2019-02-20T03:56:18.840Z,2.05
2019-02-20T03:58:50.799Z,2.07
2019-02-20T04:01:22.612Z,2.03
2019-02-20T04:03:54.453Z,2.03
2019-02-20T04:06:26.300Z,1.96
2019-02-20T04:08:59.215Z,1.90
2019-02-20T04:11:31.082Z,1.95
2019-02-20T04:14:05.506Z,1.95
2019-02-20T04:16:37.368Z,1.89
2019-02-20T04:19:09.246Z,1.91
2019-02-20T04:21:42.261Z,1.97
2019-02-20T04:24:14.146Z,1.97
2019-02-20T04:26:45.965Z,2.00
2019-02-20T04:29:17.813Z,2.02
2019-02-20T04:31:49.639Z,2.02
2019-02-20T04:34:21.490Z,2.00
2019-02-20T04:36:53.351Z,2.01
2019-02-20T04:39:25.235Z,1.96
2019-02-20T04:41:57.057Z,2.02
2019-02-20T04:44:29.977Z,2.04
2019-02-20T04:47:01.809Z,2.07
2019-02-20T04:49:33.688Z,2.09
2019-02-20T04:52:05.494Z,2.11
2019-02-20T04:54:37.378Z,2.08
2019-02-20T04:57:09.211Z,2.01
2019-02-20T04:59:42.313Z,1.99
2019-02-20T05:02:14.135Z,1.96
2019-02-20T05:04:45.962Z,1.92
2019-02-20T05:07:21.962Z,1.87
2019-02-20T05:09:57.356Z,1.87
2019-02-20T05:12:29.197Z,1.83
2019-02-20T05:15:01.062Z,1.82
2019-02-20T05:17:32.898Z,1.80
2019-02-20T05:20:05.060Z,1.77
2019-02-20T05:22:37.110Z,1.75
2019-02-20T05:25:08.949Z,1.81
2019-02-20T05:27:40.797Z,1.80
2019-02-20T05:30:12.637Z,1.79
2019-02-20T05:32:44.460Z,1.83
2019-02-20T05:35:22.354Z,1.96
2019-02-20T05:37:54.194Z,1.99
2019-02-20T05:40:26.044Z,1.96
2019-02-20T05:42:57.888Z,2.04
2019-02-20T05:45:29.722Z,2.09
2019-02-20T05:48:01.563Z,2.11
2019-02-20T05:50:33.404Z,2.13
2019-02-20T05:53:05.261Z,2.16
2019-02-20T05:55:37.154Z,2.22
2019-02-20T05:58:09.109Z,2.23
2019-02-20T06:00:40.949Z,2.20
2019-02-20T06:03:12.792Z,2.25
2019-02-20T06:05:44.625Z,2.26
2019-02-20T06:08:18.139Z,2.32
2019-02-20T06:10:50.019Z,2.32
2019-02-20T06:13:23.034Z,2.40
2019-02-20T06:15:56.545Z,2.41
2019-02-20T06:18:28.390Z,2.43
2019-02-20T06:21:00.242Z,2.45
2019-02-20T06:23:32.063Z,2.47
2019-02-20T06:26:06.650Z,2.48
2019-02-20T06:28:40.141Z,2.51
2019-02-20T06:31:15.021Z,2.52
2019-02-20T06:33:46.867Z,2.51
2019-02-20T06:36:18.820Z,2.53
2019-02-20T06:38:53.732Z,2.58
2019-02-20T06:41:27.261Z,2.57
2019-02-20T06:43:59.106Z,2.57
2019-02-20T06:46:30.938Z,2.60
2019-02-20T06:49:02.762Z,2.59
2019-02-20T06:51:34.616Z,2.53
2019-02-20T06:54:09.205Z,2.57
2019-02-20T06:56:47.019Z,2.65
2019-02-20T06:59:18.903Z,2.69
2019-02-20T07:01:50.779Z,2.77
2019-02-20T07:04:25.710Z,2.79
2019-02-20T07:07:26.856Z,2.87
2019-02-20T07:11:25.786Z,2.96
2019-02-20T07:14:38.853Z,3.04
2019-02-20T07:18:15.311Z,3.13
2019-02-20T07:21:38.373Z,3.31
2019-02-20T07:24:42.871Z,3.42
2019-02-20T07:28:13.022Z,3.44
2019-02-20T07:30:44.887Z,3.41
2019-02-20T07:33:21.738Z,3.48
2019-02-20T07:35:53.589Z,3.57
2019-02-20T07:38:25.484Z,3.64
2019-02-20T07:41:00.544Z,3.77
2019-02-20T07:43:30.990Z,3.82
2019-02-20T07:46:02.855Z,3.93
2019-02-20T07:48:45.430Z,4.07
2019-02-20T07:51:19.311Z,4.20
2019-02-20T07:53:50.810Z,4.57
2019-02-20T07:56:24.132Z,4.69
2019-02-20T07:58:55.714Z,4.92
2019-02-20T08:01:27.576Z,5.22
2019-02-20T08:03:59.135Z,5.40
2019-02-20T08:06:39.952Z,5.46
2019-02-20T08:09:13.534Z,5.59
2019-02-20T08:11:45.400Z,5.64
2019-02-20T08:14:18.095Z,5.92
2019-02-20T08:16:52.928Z,6.00
2019-02-20T08:19:24.566Z,6.11
2019-02-20T08:21:57.409Z,6.31
2019-02-20T08:24:32.066Z,6.46
2019-02-20T08:27:02.286Z,6.57
2019-02-20T08:29:38.789Z,6.62
2019-02-20T08:32:11.563Z,6.70
2019-02-20T08:34:43.153Z,6.91
2019-02-20T08:37:14.707Z,7.16
2019-02-20T08:39:48.583Z,7.39
2019-02-20T08:42:29.316Z,7.56
2019-02-20T08:45:00.908Z,7.70
2019-02-20T08:47:32.528Z,7.93
2019-02-20T08:50:04.231Z,7.92
2019-02-20T08:52:37.410Z,8.10
2019-02-20T08:55:10.638Z,8.31
2019-02-20T08:57:42.128Z,8.50
2019-02-20T09:00:16.148Z,8.54
2019-02-20T09:02:50.734Z,8.66
2019-02-20T09:05:22.334Z,8.80
2019-02-20T09:07:56.747Z,8.94
2019-02-20T09:10:28.323Z,9.04
2019-02-20T09:13:03.133Z,9.18
2019-02-20T09:15:35.793Z,9.31
2019-02-20T09:18:08.352Z,9.47
2019-02-20T09:20:41.532Z,9.57
2019-02-20T09:23:13.113Z,9.76
2019-02-20T09:25:44.683Z,9.99
2019-02-20T09:28:17.324Z,10.19
2019-02-20T09:30:51.486Z,10.37
2019-02-20T09:33:23.060Z,10.52
2019-02-20T09:35:54.637Z,10.59
2019-02-20T09:38:26.234Z,10.63
2019-02-20T09:40:57.767Z,10.73
2019-02-20T09:43:29.351Z,10.86
2019-02-20T09:46:01.977Z,10.78
2019-02-20T09:48:33.593Z,10.83
2019-02-20T09:51:05.144Z,10.96
2019-02-20T09:53:36.771Z,10.95
2019-02-20T09:56:08.406Z,10.89
2019-02-20T09:58:43.180Z,10.92
2019-02-20T10:01:14.768Z,11.07
2019-02-20T10:03:46.385Z,11.25
2019-02-20T10:06:17.948Z,11.43
2019-02-20T10:08:49.617Z,11.53
2019-02-20T10:11:22.461Z,11.71
2019-02-20T10:13:54.047Z,11.75
2019-02-20T10:16:25.652Z,11.93
2019-02-20T10:18:57.245Z,12.05
2019-02-20T10:21:28.936Z,12.10
2019-02-20T10:24:00.558Z,12.20
2019-02-20T10:26:33.431Z,12.24
2019-02-20T10:29:05.181Z,12.20
2019-02-20T10:31:36.749Z,12.31
2019-02-20T10:34:08.342Z,12.42
2019-02-20T10:36:39.972Z,12.47
2019-02-20T10:39:11.580Z,12.49
2019-02-20T10:41:43.136Z,12.69
2019-02-20T10:44:14.699Z,12.82
2019-02-20T10:46:46.298Z,12.88
2019-02-20T10:49:17.871Z,12.99
2019-02-20T10:51:49.497Z,13.06
2019-02-20T10:54:21.062Z,13.14
2019-02-20T10:56:52.635Z,13.25
2019-02-20T10:59:24.196Z,13.29
2019-02-20T11:01:56.103Z,13.26
2019-02-20T11:04:27.701Z,13.26
2019-02-20T11:06:59.278Z,13.22
2019-02-20T11:09:31.908Z,13.29
2019-02-20T11:12:03.908Z,13.43
2019-02-20T11:14:35.676Z,13.38
2019-02-20T11:17:08.345Z,13.40
2019-02-20T11:19:39.901Z,13.39
2019-02-20T11:22:11.501Z,13.45
2019-02-20T11:24:43.066Z,13.47
2019-02-20T11:27:14.686Z,13.53
2019-02-20T11:29:46.267Z,13.53
2019-02-20T11:32:17.859Z,13.54
2019-02-20T11:34:49.448Z,13.56
2019-02-20T11:37:23.369Z,13.43
2019-02-20T11:39:56.022Z,13.47
2019-02-20T11:42:27.624Z,13.41
2019-02-20T11:44:59.176Z,13.50
2019-02-20T11:47:30.769Z,13.57
2019-02-20T11:50:03.518Z,13.55
2019-02-20T11:52:38.280Z,13.46
2019-02-20T11:55:08.866Z,13.41
2019-02-20T11:57:40.629Z,13.35
2019-02-20T12:00:13.139Z,13.41
2019-02-20T12:02:44.703Z,13.49
2019-02-20T12:05:17.920Z,13.52
2019-02-20T12:07:49.601Z,13.49
2019-02-20T12:10:21.265Z,13.48
2019-02-20T12:12:52.849Z,13.44
2019-02-20T12:15:24.433Z,13.50
2019-02-20T12:17:55.984Z,13.52
2019-02-20T12:20:28.085Z,13.37
2019-02-20T12:22:59.630Z,13.25
2019-02-20T12:25:31.255Z,13.25
2019-02-20T12:28:02.821Z,13.31
2019-02-20T12:30:34.469Z,13.37
2019-02-20T12:33:06.133Z,13.41
2019-02-20T12:35:37.710Z,13.39
2019-02-20T12:38:09.284Z,13.46
2019-02-20T12:40:40.883Z,13.45
2019-02-20T12:43:12.456Z,13.48
2019-02-20T12:45:44.048Z,13.47
2019-02-20T12:48:15.911Z,13.44
2019-02-20T12:50:47.567Z,13.36
2019-02-20T12:53:19.165Z,13.31
2019-02-20T12:55:58.910Z,13.26
2019-02-20T12:58:30.729Z,13.29
2019-02-20T13:01:02.764Z,13.31
2019-02-20T13:03:36.676Z,13.36
2019-02-20T13:06:08.491Z,13.39
2019-02-20T13:08:40.106Z,13.44
2019-02-20T13:11:11.696Z,13.44
2019-02-20T13:13:43.548Z,13.35
2019-02-20T13:16:15.234Z,13.40
2019-02-20T13:18:48.144Z,13.37
2019-02-20T13:21:19.738Z,13.38
2019-02-20T13:23:51.313Z,13.40
2019-02-20T13:26:22.891Z,13.47
2019-02-20T13:28:59.718Z,13.46
2019-02-20T13:31:31.340Z,13.48
2019-02-20T13:34:02.881Z,13.50
2019-02-20T13:36:34.433Z,13.57
2019-02-20T13:39:07.030Z,13.59
2019-02-20T13:41:40.586Z,13.70
2019-02-20T13:44:13.875Z,13.78
2019-02-20T13:46:48.227Z,13.85
2019-02-20T13:49:19.907Z,13.87
2019-02-20T13:51:51.532Z,13.93
2019-02-20T13:54:23.133Z,14.01
2019-02-20T13:57:01.667Z,14.03
2019-02-20T13:59:27.999Z,13.97
2019-02-20T14:02:00.996Z,14.01
2019-02-20T14:04:33.644Z,13.99
2019-02-20T14:07:05.226Z,13.98
2019-02-20T14:09:36.783Z,13.95
2019-02-20T14:12:08.694Z,13.93
2019-02-20T14:14:40.563Z,13.88
2019-02-20T14:17:12.207Z,13.82
2019-02-20T14:19:43.804Z,13.78
2019-02-20T14:22:15.397Z,13.63
2019-02-20T14:24:46.968Z,13.64
2019-02-20T14:27:19.540Z,13.64
2019-02-20T14:29:51.132Z,13.62
2019-02-20T14:32:22.764Z,13.61
2019-02-20T14:34:54.362Z,13.64
2019-02-20T14:37:25.951Z,13.66
2019-02-20T14:39:57.812Z,13.68
2019-02-20T14:42:29.400Z,13.70
2019-02-20T14:45:01.449Z,13.62
2019-02-20T14:47:33.522Z,13.71
2019-02-20T14:50:05.726Z,13.61
2019-02-20T14:52:38.785Z,13.46
2019-02-20T14:55:10.791Z,13.54
2019-02-20T14:57:43.051Z,13.60
2019-02-20T15:00:14.995Z,13.61
2019-02-20T15:02:46.730Z,13.59
2019-02-20T15:05:19.919Z,13.64
2019-02-20T15:07:51.614Z,13.68
2019-02-20T15:10:23.209Z,13.66
2019-02-20T15:12:54.789Z,13.63
2019-02-20T15:15:26.377Z,13.61
2019-02-20T15:17:57.982Z,13.62
2019-02-20T15:20:29.560Z,13.53
2019-02-20T15:23:01.172Z,13.48
2019-02-20T15:25:32.871Z,13.48
2019-02-20T15:28:04.736Z,13.45
2019-02-20T15:30:39.468Z,13.43
2019-02-20T15:33:11.152Z,13.43
2019-02-20T15:35:42.751Z,13.34
2019-02-20T15:38:14.640Z,13.34
2019-02-20T15:40:46.198Z,13.39
2019-02-20T15:43:17.783Z,13.32
2019-02-20T15:45:49.489Z,13.34
2019-02-20T15:48:23.290Z,13.22
2019-02-20T15:50:54.486Z,13.14
2019-02-20T15:53:26.085Z,13.09
2019-02-20T15:56:00.743Z,13.09
2019-02-20T15:58:32.485Z,13.12
2019-02-20T16:01:05.737Z,13.13
2019-02-20T16:03:37.481Z,13.15
2019-02-20T16:06:09.114Z,13.13
2019-02-20T16:08:40.734Z,13.11
2019-02-20T16:11:12.720Z,13.09
2019-02-20T16:13:44.368Z,13.05
2019-02-20T16:16:16.028Z,12.97
2019-02-20T16:18:47.620Z,12.92
2019-02-20T16:21:19.186Z,12.83
2019-02-20T16:23:50.827Z,12.73
2019-02-20T16:26:25.491Z,12.65
2019-02-20T16:28:57.056Z,12.58
2019-02-20T16:31:31.489Z,12.54
2019-02-20T16:34:03.375Z,12.48
2019-02-20T16:36:35.054Z,12.42
2019-02-20T16:39:07.421Z,12.36
2019-02-20T16:41:39.151Z,12.31
2019-02-20T16:44:10.766Z,12.27
2019-02-20T16:46:42.319Z,12.25
2019-02-20T16:49:13.929Z,12.21
2019-02-20T16:51:45.512Z,12.14
2019-02-20T16:54:17.094Z,12.11
2019-02-20T16:56:48.641Z,12.07
2019-02-20T16:59:20.238Z,12.00
2019-02-20T17:01:53.114Z,11.93
2019-02-20T17:04:24.974Z,11.88
2019-02-20T17:06:56.607Z,11.81
2019-02-20T17:09:28.224Z,11.76
2019-02-20T17:12:01.395Z,11.70
2019-02-20T17:14:33.214Z,11.66
2019-02-20T17:17:05.005Z,11.62
2019-02-20T17:19:38.167Z,11.55
2019-02-20T17:22:09.873Z,11.44
2019-02-20T17:24:41.514Z,11.34
2019-02-20T17:27:13.094Z,11.25
2019-02-20T17:29:44.715Z,11.15
2019-02-20T17:32:16.340Z,11.07
2019-02-20T17:34:47.942Z,11.02
2019-02-20T17:37:21.190Z,10.94
2019-02-20T17:39:53.829Z,10.87
2019-02-20T17:42:25.454Z,10.81
2019-02-20T17:44:57.020Z,10.74
2019-02-20T17:47:29.686Z,10.69
2019-02-20T17:50:02.336Z,10.64
2019-02-20T17:52:34.062Z,10.59
2019-02-20T17:55:06.086Z,10.54
2019-02-20T17:57:37.757Z,10.50
2019-02-20T18:00:11.661Z,10.49
2019-02-20T18:02:43.431Z,10.40
2019-02-20T18:05:15.122Z,10.27
2019-02-20T18:07:51.477Z,10.17
2019-02-20T18:10:20.016Z,10.06
2019-02-20T18:12:53.108Z,9.97
2019-02-20T18:15:24.687Z,9.92
2019-02-20T18:17:56.285Z,9.80
2019-02-20T18:20:27.908Z,9.76
2019-02-20T18:22:59.990Z,9.75
2019-02-20T18:25:31.562Z,9.63
2019-02-20T18:28:03.293Z,9.51
2019-02-20T18:30:36.064Z,9.49
2019-02-20T18:33:07.680Z,9.40
2019-02-20T18:35:39.417Z,9.38
2019-02-20T18:38:11.051Z,9.34
2019-02-20T18:40:42.657Z,9.27
2019-02-20T18:43:14.289Z,9.18
2019-02-20T18:45:45.984Z,9.16
2019-02-20T18:48:17.610Z,9.10
2019-02-20T18:50:49.280Z,9.06
2019-02-20T18:53:21.018Z,9.01
2019-02-20T18:55:52.628Z,9.01
2019-02-20T18:58:33.500Z,8.93
2019-02-20T19:00:57.607Z,8.91
2019-02-20T19:03:29.268Z,8.88
2019-02-20T19:06:01.113Z,8.87
2019-02-20T19:08:40.321Z,8.84
2019-02-20T19:11:38.331Z,8.80
2019-02-20T19:14:23.870Z,8.76
2019-02-20T19:17:46.305Z,8.72
2019-02-20T19:21:15.453Z,8.68
2019-02-20T19:24:41.388Z,8.63
2019-02-20T19:27:45.648Z,8.53
2019-02-20T19:31:24.323Z,8.44
2019-02-20T19:35:06.248Z,8.37
2019-02-20T19:38:51.497Z,8.26
2019-02-20T19:42:18.663Z,8.19
2019-02-20T19:45:53.238Z,8.13
2019-02-20T19:49:16.033Z,8.10
2019-02-20T19:53:00.334Z,8.06
2019-02-20T19:56:17.787Z,7.97
2019-02-20T19:59:28.780Z,7.92
2019-02-20T20:03:06.738Z,7.93
2019-02-20T20:06:25.999Z,7.87
2019-02-20T20:10:06.882Z,7.81
2019-02-20T20:13:26.425Z,7.80
2019-02-20T20:17:01.781Z,7.84
2019-02-20T20:20:35.693Z,7.81
2019-02-20T20:24:25.606Z,7.80
2019-02-20T20:28:01.712Z,7.74
2019-02-20T20:31:36.944Z,7.72
2019-02-20T20:35:03.489Z,7.68
2019-02-20T20:38:08.625Z,7.62
2019-02-20T20:41:47.571Z,7.48
2019-02-20T20:45:23.415Z,7.45
2019-02-20T20:48:55.494Z,7.45
2019-02-20T20:52:27.328Z,7.46
2019-02-20T20:55:35.949Z,7.48
2019-02-20T20:58:46.823Z,7.48
2019-02-20T21:01:58.533Z,7.48
2019-02-20T21:05:39.379Z,7.48
2019-02-20T21:08:52.701Z,7.46
2019-02-20T21:13:04.150Z,7.48
2019-02-20T21:16:31.268Z,7.49
2019-02-20T21:19:40.923Z,7.48
2019-02-20T21:23:19.903Z,7.40
2019-02-20T21:26:53.984Z,7.35
2019-02-20T21:30:14.852Z,7.29
2019-02-20T21:34:03.322Z,7.24
2019-02-20T21:36:53.047Z,7.20
2019-02-20T21:39:59.285Z,7.14
2019-02-20T21:43:26.616Z,7.10
2019-02-20T21:46:48.620Z,7.05
2019-02-20T21:50:28.043Z,7.03
2019-02-20T21:53:41.292Z,6.94
2019-02-20T21:56:42.372Z,6.80
2019-02-20T22:00:15.818Z,6.73
2019-02-20T22:03:49.914Z,6.64
2019-02-20T22:06:56.767Z,6.57
2019-02-20T22:09:58.141Z,6.52
2019-02-20T22:13:26.131Z,6.45
2019-02-20T22:16:54.633Z,6.41
2019-02-20T22:20:27.184Z,6.37
2019-02-20T22:23:56.804Z,6.33
2019-02-20T22:27:23.479Z,6.23
2019-02-20T22:31:05.406Z,6.17
2019-02-20T22:34:16.547Z,6.13
2019-02-20T22:37:58.190Z,6.11
2019-02-20T22:41:40.542Z,6.01
2019-02-20T22:45:02.146Z,6.01
2019-02-20T22:48:29.712Z,5.93
2019-02-20T22:52:08.955Z,5.88
2019-02-20T22:56:01.925Z,5.85
2019-02-20T22:58:55.536Z,5.76
2019-02-20T23:02:43.838Z,5.70
2019-02-20T23:06:10.979Z,5.67
2019-02-20T23:09:12.909Z,5.62
2019-02-20T23:12:06.056Z,5.54
2019-02-20T23:15:08.703Z,5.57
2019-02-20T23:17:40.281Z,5.51
2019-02-20T23:20:13.179Z,5.47
2019-02-20T23:22:44.761Z,5.46
2019-02-20T23:25:16.369Z,5.41
2019-02-20T23:27:47.962Z,5.38
2019-02-20T23:30:19.603Z,5.35
2019-02-20T23:32:56.623Z,5.34
2019-02-20T23:35:24.425Z,5.33
2019-02-20T23:37:55.999Z,5.30
2019-02-20T23:40:27.802Z,5.25
2019-02-20T23:42:59.625Z,5.24
2019-02-20T23:45:31.169Z,5.23
2019-02-20T23:48:02.733Z,5.21
2019-02-20T23:50:34.310Z,5.14
2019-02-20T23:53:06.456Z,5.13
2019-02-20T23:55:37.996Z,5.08
2019-02-20T23:58:09.846Z,5.05
